createdAt,value
2023-04-29T00:00:55.616Z,13.70
2023-04-29T00:03:23.616Z,13.60
2023-04-29T00:05:51.847Z,13.60
2023-04-29T00:08:19.792Z,13.60
2023-04-29T00:10:47.681Z,13.60
2023-04-29T00:13:15.517Z,13.50
2023-04-29T00:15:43.526Z,13.40
2023-04-29T00:18:13.620Z,13.40
2023-04-29T00:20:43.176Z,13.40
2023-04-29T00:23:11.274Z,13.40
2023-04-29T00:25:39.223Z,13.40
2023-04-29T00:28:07.237Z,13.50
2023-04-29T00:30:35.483Z,13.40
2023-04-29T00:33:03.403Z,13.40
2023-04-29T00:35:32.685Z,13.40
2023-04-29T00:38:00.525Z,13.30
2023-04-29T00:40:29.169Z,13.30
2023-04-29T00:42:57.316Z,13.30
2023-04-29T00:45:25.350Z,13.20
2023-04-29T00:47:53.237Z,13.30
2023-04-29T00:50:22.661Z,13.30
2023-04-29T00:52:53.238Z,13.30
2023-04-29T00:55:21.721Z,13.20
2023-04-29T00:57:52.247Z,13.10
2023-04-29T01:00:20.358Z,13.20
2023-04-29T01:02:49.452Z,13.20
2023-04-29T01:05:17.928Z,13.30
2023-04-29T01:07:57.543Z,13.30
2023-04-29T01:10:30.240Z,13.40
2023-04-29T01:13:07.757Z,13.40
2023-04-29T01:15:45.448Z,13.30
2023-04-29T01:18:20.383Z,13.40
2023-04-29T01:20:48.577Z,13.30
2023-04-29T01:23:17.757Z,13.30
2023-04-29T01:25:48.895Z,13.30
2023-04-29T01:28:26.850Z,13.30
2023-04-29T01:31:01.923Z,13.30
2023-04-29T01:33:41.501Z,13.30
2023-04-29T01:36:17.728Z,13.20
2023-04-29T01:38:53.413Z,13.00
2023-04-29T01:41:29.418Z,13.00
2023-04-29T01:43:59.648Z,12.90
2023-04-29T01:46:29.340Z,12.80
2023-04-29T01:48:57.214Z,12.70
2023-04-29T01:51:25.176Z,12.70
2023-04-29T01:53:53.208Z,12.60
2023-04-29T01:56:22.395Z,12.60
2023-04-29T01:58:50.192Z,12.60
2023-04-29T02:01:18.144Z,12.70
2023-04-29T02:03:46.358Z,12.70
2023-04-29T02:06:14.292Z,12.70
2023-04-29T02:08:42.166Z,12.70
2023-04-29T02:11:09.997Z,12.60
2023-04-29T02:13:39.249Z,12.70
2023-04-29T02:16:11.029Z,12.70
2023-04-29T02:18:40.056Z,12.70
2023-04-29T02:21:08.517Z,12.70
2023-04-29T02:23:36.526Z,12.60
2023-04-29T02:26:05.575Z,12.60
2023-04-29T02:28:34.711Z,12.60
2023-04-29T02:31:03.962Z,12.70
2023-04-29T02:33:31.858Z,12.80
2023-04-29T02:36:00.306Z,12.80
2023-04-29T02:38:28.202Z,12.90
2023-04-29T02:40:56.018Z,13.00
2023-04-29T02:43:24.119Z,13.10
2023-04-29T02:45:52.092Z,13.20
2023-04-29T02:48:21.300Z,13.30
2023-04-29T02:50:49.228Z,13.40
2023-04-29T02:53:17.149Z,13.40
2023-04-29T02:55:44.977Z,13.50
2023-04-29T02:58:12.838Z,13.40
2023-04-29T03:00:42.184Z,13.40
2023-04-29T03:03:10.758Z,13.30
2023-04-29T03:05:40.049Z,13.30
2023-04-29T03:08:10.229Z,13.30
2023-04-29T03:10:41.415Z,13.20
2023-04-29T03:13:09.665Z,13.20
2023-04-29T03:15:38.534Z,13.20
2023-04-29T03:18:06.368Z,13.10
2023-04-29T03:20:34.208Z,13.00
2023-04-29T03:23:03.432Z,12.90
2023-04-29T03:25:31.260Z,12.90
2023-04-29T03:27:59.076Z,12.80
2023-04-29T03:30:26.950Z,12.70
2023-04-29T03:32:54.787Z,12.80
2023-04-29T03:35:22.758Z,12.70
2023-04-29T03:37:50.665Z,12.60
2023-04-29T03:40:19.977Z,12.60
2023-04-29T03:42:47.893Z,12.60
2023-04-29T03:45:15.996Z,12.60
2023-04-29T03:47:43.860Z,12.60
2023-04-29T03:50:11.997Z,12.50
2023-04-29T03:52:39.918Z,12.50
2023-04-29T03:55:08.341Z,12.50
2023-04-29T03:57:37.493Z,12.50
2023-04-29T04:00:06.040Z,12.60
2023-04-29T04:02:35.237Z,12.50
2023-04-29T04:05:03.463Z,12.60
2023-04-29T04:07:31.341Z,12.60
2023-04-29T04:09:59.159Z,12.60
2023-04-29T04:12:26.969Z,12.50
2023-04-29T04:14:57.062Z,12.60
2023-04-29T04:17:25.065Z,12.50
2023-04-29T04:19:53.197Z,12.50
2023-04-29T04:22:21.260Z,12.60
2023-04-29T04:24:49.048Z,12.50
2023-04-29T04:27:16.866Z,12.40
2023-04-29T04:29:44.725Z,12.50
2023-04-29T04:32:13.895Z,12.40
2023-04-29T04:34:41.780Z,12.40
2023-04-29T04:37:09.804Z,12.40
2023-04-29T04:39:37.628Z,12.30
2023-04-29T04:42:05.554Z,12.40
2023-04-29T04:44:33.511Z,12.30
2023-04-29T04:47:02.149Z,12.20
2023-04-29T04:49:31.315Z,12.10
2023-04-29T04:51:59.185Z,12.10
2023-04-29T04:54:27.066Z,12.10
2023-04-29T04:56:54.889Z,12.10
2023-04-29T04:59:22.905Z,12.00
2023-04-29T05:01:50.846Z,12.10
2023-04-29T05:04:18.793Z,11.90
2023-04-29T05:06:48.144Z,12.00
2023-04-29T05:09:16.657Z,12.00
2023-04-29T05:11:44.501Z,11.90
2023-04-29T05:14:12.371Z,11.90
2023-04-29T05:16:40.343Z,11.90
2023-04-29T05:19:09.583Z,11.90
2023-04-29T05:21:37.495Z,11.80
2023-04-29T05:24:07.307Z,11.90
2023-04-29T05:26:35.152Z,12.00
2023-04-29T05:29:03.000Z,12.00
2023-04-29T05:31:31.253Z,12.10
2023-04-29T05:33:59.086Z,12.10
2023-04-29T05:36:27.956Z,12.10
2023-04-29T05:38:55.746Z,12.20
2023-04-29T05:41:25.143Z,12.20
2023-04-29T05:43:53.071Z,12.30
2023-04-29T05:46:23.083Z,12.40
2023-04-29T05:48:51.137Z,12.40
2023-04-29T05:51:19.073Z,12.40
2023-04-29T05:53:46.889Z,12.30
2023-04-29T05:56:14.701Z,12.30
2023-04-29T05:58:43.908Z,12.20
2023-04-29T06:01:11.906Z,12.20
2023-04-29T06:03:39.974Z,12.20
2023-04-29T06:06:08.417Z,12.20
2023-04-29T06:08:36.725Z,12.30
2023-04-29T06:11:05.252Z,12.30
2023-04-29T06:13:33.377Z,12.30
2023-04-29T06:16:02.688Z,12.30
2023-04-29T06:18:30.477Z,12.30
2023-04-29T06:20:58.401Z,12.40
2023-04-29T06:23:26.565Z,12.50
2023-04-29T06:25:54.370Z,12.60
2023-04-29T06:28:22.279Z,12.60
2023-04-29T06:30:50.146Z,12.60
2023-04-29T06:33:19.330Z,12.60
2023-04-29T06:35:47.152Z,12.60
2023-04-29T06:38:14.949Z,12.80
2023-04-29T06:40:42.729Z,13.00
2023-04-29T06:43:10.606Z,13.20
2023-04-29T06:45:38.436Z,13.20
2023-04-29T06:48:07.196Z,13.40
2023-04-29T06:50:36.468Z,13.50
2023-04-29T06:53:04.365Z,13.50
2023-04-29T06:55:32.187Z,13.50
2023-04-29T06:58:00.021Z,13.40
2023-04-29T07:00:28.110Z,13.30
2023-04-29T07:02:56.404Z,13.20
2023-04-29T07:05:25.157Z,13.20
2023-04-29T07:07:54.557Z,13.30
2023-04-29T07:10:22.357Z,13.20
2023-04-29T07:12:50.192Z,13.30
2023-04-29T07:15:18.230Z,13.20
2023-04-29T07:17:46.040Z,13.30
2023-04-29T07:20:14.676Z,13.50
2023-04-29T07:22:42.560Z,13.60
2023-04-29T07:25:11.853Z,13.60
2023-04-29T07:27:40.276Z,13.50
2023-04-29T07:30:09.089Z,13.60
2023-04-29T07:32:37.117Z,13.60
2023-04-29T07:35:05.453Z,13.70
2023-04-29T07:37:33.587Z,13.80
2023-04-29T07:40:01.428Z,13.80
2023-04-29T07:42:30.647Z,13.90
2023-04-29T07:44:58.592Z,13.90
2023-04-29T07:47:26.531Z,13.80
2023-04-29T07:49:54.416Z,13.80
2023-04-29T07:52:22.587Z,13.90
2023-04-29T07:54:50.795Z,13.90
2023-04-29T07:57:18.790Z,13.90
2023-04-29T07:59:47.975Z,13.60
2023-04-29T08:02:16.797Z,13.50
2023-04-29T08:04:45.181Z,13.50
2023-04-29T08:07:13.645Z,13.50
2023-04-29T08:09:41.580Z,13.70
2023-04-29T08:12:10.403Z,13.70
2023-04-29T08:14:38.214Z,13.60
2023-04-29T08:17:08.231Z,13.60
2023-04-29T08:19:36.188Z,13.70
2023-04-29T08:22:04.481Z,13.70
2023-04-29T08:24:33.689Z,13.70
2023-04-29T08:27:01.764Z,13.70
2023-04-29T08:29:32.648Z,13.70
2023-04-29T08:32:00.697Z,13.60
2023-04-29T08:34:30.271Z,13.50
2023-04-29T08:36:58.580Z,13.50
2023-04-29T08:39:26.450Z,13.50
2023-04-29T08:41:56.408Z,13.60
2023-04-29T08:44:24.276Z,13.70
2023-04-29T08:46:52.444Z,13.70
2023-04-29T08:49:20.401Z,13.70
2023-04-29T08:51:51.548Z,13.70
2023-04-29T08:54:19.448Z,13.60
2023-04-29T08:56:48.230Z,13.50
2023-04-29T08:59:17.135Z,13.40
2023-04-29T09:01:50.492Z,13.30
2023-04-29T09:04:30.999Z,13.30
2023-04-29T09:07:01.051Z,13.30
2023-04-29T09:09:29.904Z,13.30
2023-04-29T09:11:57.694Z,13.40
2023-04-29T09:14:26.258Z,13.40
2023-04-29T09:16:54.152Z,13.40
2023-04-29T09:19:32.791Z,13.30
2023-04-29T09:22:02.630Z,13.30
2023-04-29T09:24:32.169Z,13.30
2023-04-29T09:27:00.856Z,13.40
2023-04-29T09:29:29.461Z,13.60
2023-04-29T09:31:58.611Z,13.50
2023-04-29T09:34:35.688Z,13.50
2023-04-29T09:37:04.950Z,13.60
2023-04-29T09:39:40.668Z,13.50
2023-04-29T09:42:09.549Z,13.50
2023-04-29T09:44:37.390Z,13.60
2023-04-29T09:47:06.650Z,13.60
2023-04-29T09:49:37.432Z,13.60
2023-04-29T09:52:08.792Z,13.60
2023-04-29T09:54:38.540Z,13.50
2023-04-29T09:57:09.095Z,13.50
2023-04-29T09:59:38.364Z,13.50
2023-04-29T10:02:15.290Z,13.50
2023-04-29T10:04:45.586Z,13.40
2023-04-29T10:07:17.829Z,13.50
2023-04-29T10:09:47.923Z,13.70
2023-04-29T10:12:18.660Z,13.70
2023-04-29T10:14:51.951Z,13.70
2023-04-29T10:17:25.504Z,13.80
2023-04-29T10:19:59.286Z,13.90
2023-04-29T10:22:37.212Z,14.00
2023-04-29T10:25:08.537Z,14.10
2023-04-29T10:27:38.674Z,14.20
2023-04-29T10:30:11.339Z,14.20
2023-04-29T10:32:50.327Z,14.30
2023-04-29T10:35:22.665Z,14.20
2023-04-29T10:37:52.847Z,14.20
2023-04-29T10:40:29.208Z,14.20
2023-04-29T10:42:57.198Z,14.10
2023-04-29T10:45:26.969Z,14.10
2023-04-29T10:48:18.747Z,14.10
2023-04-29T10:51:06.061Z,14.20
2023-04-29T10:53:35.607Z,14.20
2023-04-29T10:56:09.302Z,14.20
2023-04-29T10:58:43.268Z,14.40
2023-04-29T11:01:12.901Z,14.40
2023-04-29T11:04:00.983Z,14.50
2023-04-29T11:06:41.448Z,14.70
2023-04-29T11:09:13.683Z,14.90
2023-04-29T11:11:46.706Z,15.10
2023-04-29T11:14:16.286Z,15.30
2023-04-29T11:16:53.334Z,15.90
2023-04-29T11:19:21.598Z,16.50
2023-04-29T11:21:49.435Z,16.80
2023-04-29T11:24:18.618Z,17.10
2023-04-29T11:26:46.617Z,17.30
2023-04-29T11:29:14.931Z,17.40
2023-04-29T11:31:42.830Z,17.60
2023-04-29T11:34:10.929Z,17.70
2023-04-29T11:36:38.776Z,17.60
2023-04-29T11:39:06.694Z,17.50
2023-04-29T11:41:36.640Z,17.50
2023-04-29T11:44:06.614Z,17.60
2023-04-29T11:46:35.488Z,17.50
2023-04-29T11:49:03.586Z,17.50
2023-04-29T11:51:32.625Z,17.30
2023-04-29T11:54:00.547Z,17.40
2023-04-29T11:56:28.440Z,17.40
2023-04-29T11:58:58.882Z,17.30
2023-04-29T12:01:27.282Z,17.20
2023-04-29T12:04:00.825Z,17.10
2023-04-29T12:06:30.253Z,16.80
2023-04-29T12:09:00.489Z,16.80
2023-04-29T12:11:28.837Z,16.80
2023-04-29T12:14:00.965Z,16.80
2023-04-29T12:16:29.484Z,16.80
2023-04-29T12:18:58.615Z,16.70
2023-04-29T12:21:27.441Z,16.70
2023-04-29T12:23:55.433Z,16.60
2023-04-29T12:26:23.327Z,16.50
2023-04-29T12:28:55.940Z,16.20
2023-04-29T12:31:25.175Z,16.00
2023-04-29T12:33:56.315Z,16.10
2023-04-29T12:36:24.594Z,16.10
2023-04-29T12:38:54.619Z,16.40
2023-04-29T12:41:37.688Z,16.60
2023-04-29T12:44:06.852Z,17.00
2023-04-29T12:46:40.408Z,17.50
2023-04-29T12:49:09.275Z,17.60
2023-04-29T12:51:37.661Z,17.60
2023-04-29T12:54:07.329Z,17.60
2023-04-29T12:56:35.322Z,17.40
2023-04-29T12:59:08.311Z,17.40
2023-04-29T13:01:36.308Z,17.60
2023-04-29T13:04:08.894Z,18.00
2023-04-29T13:06:40.945Z,18.00
2023-04-29T13:09:17.878Z,18.00
2023-04-29T13:11:46.413Z,17.70
2023-04-29T13:14:14.327Z,17.80
2023-04-29T13:16:50.369Z,17.80
2023-04-29T13:19:38.360Z,17.90
2023-04-29T13:22:07.424Z,17.90
2023-04-29T13:24:36.809Z,17.70
2023-04-29T13:27:05.714Z,17.60
2023-04-29T13:29:33.626Z,17.40
2023-04-29T13:32:01.717Z,17.10
2023-04-29T13:34:31.020Z,16.80
2023-04-29T13:36:58.835Z,16.60
2023-04-29T13:39:27.095Z,16.40
2023-04-29T13:41:58.977Z,16.30
2023-04-29T13:44:33.198Z,16.30
2023-04-29T13:47:07.570Z,16.20
2023-04-29T13:50:09.952Z,16.10
2023-04-29T13:55:39.010Z,15.80
2023-04-29T14:00:38.141Z,15.90
2023-04-29T14:03:04.308Z,16.00
2023-04-29T14:05:33.802Z,16.00
2023-04-29T14:08:01.874Z,16.20
2023-04-29T14:10:29.685Z,16.20
2023-04-29T14:12:57.518Z,16.20
2023-04-29T14:15:25.394Z,16.20
2023-04-29T14:17:53.407Z,16.20
2023-04-29T14:20:21.575Z,16.10
2023-04-29T14:22:50.720Z,16.20
2023-04-29T14:25:18.687Z,16.20
2023-04-29T14:27:47.365Z,16.20
2023-04-29T14:30:15.167Z,16.20
2023-04-29T14:32:43.013Z,16.10
2023-04-29T14:35:11.193Z,15.90
2023-04-29T14:37:39.018Z,16.10
2023-04-29T14:40:09.461Z,16.20
2023-04-29T14:42:37.298Z,16.20
2023-04-29T14:45:06.795Z,16.10
2023-04-29T14:47:34.706Z,16.20
2023-04-29T14:50:02.719Z,16.30
2023-04-29T14:52:30.559Z,16.30
2023-04-29T14:54:58.363Z,16.40
2023-04-29T14:57:27.559Z,16.50
2023-04-29T14:59:55.659Z,16.30
2023-04-29T15:02:23.483Z,16.30
2023-04-29T15:04:51.367Z,16.30
2023-04-29T15:07:19.881Z,16.20
2023-04-29T15:09:47.869Z,16.10
2023-04-29T15:12:17.539Z,16.10
2023-04-29T15:14:47.390Z,16.20
2023-04-29T15:17:15.221Z,16.20
2023-04-29T15:19:43.051Z,16.20
2023-04-29T15:22:10.876Z,16.30
2023-04-29T15:24:38.717Z,16.20
2023-04-29T15:27:06.648Z,16.10
2023-04-29T15:29:37.117Z,16.10
2023-04-29T15:32:07.009Z,16.00
2023-04-29T15:34:34.945Z,15.90
2023-04-29T15:37:02.972Z,15.90
2023-04-29T15:39:31.660Z,15.70
2023-04-29T15:42:00.361Z,15.50
2023-04-29T15:44:28.295Z,15.50
2023-04-29T15:46:56.212Z,15.50
2023-04-29T15:49:25.552Z,15.50
2023-04-29T15:51:53.381Z,15.30
2023-04-29T15:54:21.559Z,15.20
2023-04-29T15:56:49.931Z,15.20
2023-04-29T15:59:17.750Z,15.30
2023-04-29T16:01:45.752Z,15.30
2023-04-29T16:04:13.669Z,15.10
2023-04-29T16:06:43.080Z,15.00
2023-04-29T16:09:12.034Z,14.90
2023-04-29T16:11:39.885Z,14.80
2023-04-29T16:14:07.714Z,14.60
2023-04-29T16:16:35.734Z,14.50
2023-04-29T16:19:03.609Z,14.50
2023-04-29T16:21:32.830Z,14.40
2023-04-29T16:24:02.142Z,14.40
2023-04-29T16:26:30.230Z,14.30
2023-04-29T16:28:58.384Z,14.40
2023-04-29T16:31:26.483Z,14.20
2023-04-29T16:33:56.949Z,14.30
2023-04-29T16:36:26.238Z,14.20
2023-04-29T16:38:54.927Z,14.10
2023-04-29T16:41:25.960Z,14.10
2023-04-29T16:43:54.161Z,14.10
2023-04-29T16:46:23.288Z,14.20
2023-04-29T16:48:52.024Z,14.30
2023-04-29T16:51:20.005Z,14.30
2023-04-29T16:53:47.797Z,14.30
2023-04-29T16:56:16.204Z,14.30
2023-04-29T16:58:45.718Z,14.30
2023-04-29T17:01:13.659Z,14.30
2023-04-29T17:03:41.744Z,14.30
2023-04-29T17:06:09.703Z,14.30
2023-04-29T17:08:37.679Z,14.20
2023-04-29T17:11:06.311Z,14.20
2023-04-29T17:13:34.331Z,14.10
2023-04-29T17:16:03.627Z,14.00
2023-04-29T17:18:31.490Z,13.90
2023-04-29T17:21:00.363Z,13.70
2023-04-29T17:23:28.620Z,13.60
2023-04-29T17:25:57.011Z,13.60
2023-04-29T17:28:24.887Z,13.40
2023-04-29T17:30:55.611Z,13.50
2023-04-29T17:33:33.484Z,13.40
2023-04-29T17:36:02.073Z,13.40
2023-04-29T17:38:30.346Z,13.50
2023-04-29T17:40:58.259Z,13.50
2023-04-29T17:43:26.541Z,13.50
2023-04-29T17:45:54.504Z,13.50
2023-04-29T17:48:23.815Z,13.60
2023-04-29T17:50:51.615Z,13.60
2023-04-29T17:53:19.420Z,13.60
2023-04-29T17:55:47.294Z,13.50
2023-04-29T17:58:16.444Z,13.60
2023-04-29T18:00:44.278Z,13.60
2023-04-29T18:03:12.314Z,13.60
2023-04-29T18:05:41.549Z,13.50
2023-04-29T18:08:09.354Z,13.60
2023-04-29T18:10:37.175Z,13.60
2023-04-29T18:13:04.966Z,13.70
2023-04-29T18:15:33.007Z,13.80
2023-04-29T18:18:00.877Z,13.70
2023-04-29T18:20:28.720Z,13.70
2023-04-29T18:22:57.978Z,13.60
2023-04-29T18:25:26.386Z,13.60
2023-04-29T18:28:03.615Z,13.60
2023-04-29T18:30:43.494Z,13.70
2023-04-29T18:33:11.395Z,13.70
2023-04-29T18:35:39.294Z,13.70
2023-04-29T18:38:10.065Z,13.70
2023-04-29T18:40:37.906Z,13.50
2023-04-29T18:43:05.734Z,13.60
2023-04-29T18:45:33.704Z,13.70
2023-04-29T18:48:05.518Z,13.70
2023-04-29T18:50:33.535Z,13.80
2023-04-29T18:53:01.850Z,13.80
2023-04-29T18:55:31.098Z,13.90
2023-04-29T18:57:59.051Z,13.70
2023-04-29T19:00:26.990Z,13.70
2023-04-29T19:02:55.401Z,13.70
2023-04-29T19:05:23.690Z,13.70
2023-04-29T19:07:51.511Z,13.60
2023-04-29T19:10:19.464Z,13.50
2023-04-29T19:12:48.666Z,13.50
2023-04-29T19:15:17.610Z,13.50
2023-04-29T19:17:45.565Z,13.50
2023-04-29T19:20:13.895Z,13.60
2023-04-29T19:22:41.714Z,13.60
2023-04-29T19:25:10.270Z,13.60
2023-04-29T19:27:40.672Z,13.50
2023-04-29T19:30:10.888Z,13.50
2023-04-29T19:32:39.035Z,13.50
2023-04-29T19:35:07.764Z,13.50
2023-04-29T19:37:35.652Z,13.50
2023-04-29T19:40:03.970Z,13.60
2023-04-29T19:42:31.893Z,13.70
2023-04-29T19:44:59.826Z,13.80
2023-04-29T19:47:28.977Z,13.80
2023-04-29T19:49:56.929Z,13.80
2023-04-29T19:52:25.640Z,13.80
2023-04-29T19:54:53.811Z,13.80
2023-04-29T19:57:21.671Z,13.80
2023-04-29T19:59:49.479Z,13.80
2023-04-29T20:02:17.360Z,13.80
2023-04-29T20:04:46.647Z,13.90
2023-04-29T20:07:14.506Z,13.90
2023-04-29T20:09:42.338Z,14.00
2023-04-29T20:12:10.198Z,13.90
2023-04-29T20:14:37.985Z,13.90
2023-04-29T20:17:06.059Z,13.80
2023-04-29T20:19:34.820Z,13.80
2023-04-29T20:22:04.003Z,13.80
2023-04-29T20:24:31.821Z,13.70
2023-04-29T20:26:59.658Z,13.60
2023-04-29T20:29:29.823Z,13.50
2023-04-29T20:31:57.651Z,13.50
2023-04-29T20:34:26.332Z,13.50
2023-04-29T20:36:54.151Z,13.50
2023-04-29T20:39:23.323Z,13.60
2023-04-29T20:41:51.548Z,13.70
2023-04-29T20:44:19.490Z,13.70
2023-04-29T20:46:47.319Z,13.80
2023-04-29T20:49:15.269Z,13.70
2023-04-29T20:51:43.281Z,13.70
2023-04-29T20:54:11.199Z,13.70
2023-04-29T20:56:40.750Z,13.80
2023-04-29T20:59:08.605Z,13.70
2023-04-29T21:01:37.901Z,13.70
2023-04-29T21:04:06.886Z,13.70
2023-04-29T21:06:34.955Z,13.70
2023-04-29T21:09:03.037Z,13.70
2023-04-29T21:11:30.870Z,13.70
2023-04-29T21:14:00.029Z,13.70
2023-04-29T21:16:27.897Z,13.70
2023-04-29T21:18:55.735Z,13.70
2023-04-29T21:21:23.940Z,13.70
2023-04-29T21:23:51.756Z,13.70
2023-04-29T21:26:19.777Z,13.70
2023-04-29T21:28:47.574Z,13.80
2023-04-29T21:31:17.107Z,13.70
2023-04-29T21:33:45.668Z,13.70
2023-04-29T21:36:13.808Z,13.70
2023-04-29T21:38:42.587Z,13.60
2023-04-29T21:41:19.525Z,13.60
2023-04-29T21:43:47.659Z,13.60
2023-04-29T21:46:17.236Z,13.60
2023-04-29T21:48:45.448Z,13.50
2023-04-29T21:51:13.384Z,13.50
2023-04-29T21:53:41.505Z,13.50
2023-04-29T21:56:09.375Z,13.60
2023-04-29T21:58:37.549Z,13.60
2023-04-29T22:01:25.593Z,13.60
2023-04-29T22:03:55.055Z,13.60
2023-04-29T22:06:23.178Z,13.60
2023-04-29T22:08:51.124Z,13.60
2023-04-29T22:11:21.393Z,13.50
2023-04-29T22:13:49.266Z,13.50
2023-04-29T22:16:18.569Z,13.50
2023-04-29T22:18:46.475Z,13.50
2023-04-29T22:21:15.662Z,13.50
2023-04-29T22:23:43.743Z,13.50
2023-04-29T22:26:11.668Z,13.50
2023-04-29T22:28:39.580Z,13.50
2023-04-29T22:31:07.466Z,13.60
2023-04-29T22:33:35.620Z,13.50
2023-04-29T22:36:03.986Z,13.50
2023-04-29T22:38:34.809Z,13.50
2023-04-29T22:41:02.665Z,13.40
2023-04-29T22:43:30.656Z,13.40
2023-04-29T22:45:58.554Z,13.40
2023-04-29T22:48:27.826Z,13.40
2023-04-29T22:50:57.203Z,13.40
2023-04-29T22:53:25.079Z,13.40
2023-04-29T22:55:55.767Z,13.40
2023-04-29T22:58:25.692Z,13.30
2023-04-29T23:00:55.878Z,13.30
2023-04-29T23:03:23.891Z,13.30
2023-04-29T23:05:51.843Z,13.30
2023-04-29T23:08:19.658Z,13.20
2023-04-29T23:10:49.624Z,13.20
2023-04-29T23:13:19.346Z,13.20
2023-04-29T23:15:47.198Z,13.20
2023-04-29T23:18:15.229Z,13.20
2023-04-29T23:20:46.892Z,13.00
2023-04-29T23:23:14.735Z,13.00
2023-04-29T23:25:43.062Z,12.90
2023-04-29T23:28:10.934Z,12.90
2023-04-29T23:30:40.119Z,12.70
2023-04-29T23:33:08.067Z,12.70
2023-04-29T23:35:36.229Z,12.60
2023-04-29T23:38:04.049Z,12.50
2023-04-29T23:40:31.937Z,12.40
2023-04-29T23:42:59.866Z,12.40
2023-04-29T23:45:27.683Z,12.50
2023-04-29T23:47:56.913Z,12.40
2023-04-29T23:50:24.807Z,12.50
2023-04-29T23:52:52.642Z,12.50
2023-04-29T23:55:21.266Z,12.40
2023-04-29T23:57:49.102Z,12.40
